BQK weather

Brunswick Golden Isles Airport
Brunswick, Georgia, United States

Public forecast

Using degrees Fahrenheit for public forecast. Weather courtesy of forecast.io.

METAR (pilot weather report)

Retrieved 2019/09/23 03:35 UTC (8 minutes ago):

KBQK 230335Z AUTO 00000KT 10SM CLR 20/19 A3013 RMK AO2 T01970191

TAF (pilot weather forecast)

Forecast is more than 12 hours old.

Closest forecast is St Simons Island Airport, 7.5 nm (13.9 km) SSE. Retrieved 2019/09/22 00:24 UTC (1 day ago):

TAF KSSI 222321Z 2300/2324 06008KT P6SM SCT035 FM230600 36003KT P6SM FEW035 FM231500 09010KT P6SM SCT040